logo
Search for airport 
image banner adimage banner adimage banner ad
image banner ad

FACONT - Contermanskloof

Located in , South Africa

ICAO - , IATA -

Data provided by Airmate  

General information

Coordinates: S33°48'4" E18°34'59"
Elevation is 393 feet MSL.
 
Rated:
View ratings:
[VIEW]
View others Airports in Western Cape

Operational data

Special qualification required
Current time UTC:
Current local time:
Weather at : - ( 0 km )
METAR: CYSF 290902Z AUTO 12004KT 1 3/4SM BR CLR 06/06 A2979 RMK SLP103
View NOTAMs / SUP AIP / TFR affecting this airport [VIEW]
Communications frequencies: [VIEW]

Runways:

RWY identifierQFULength (ft)Width (ft)SurfaceLDA (ft)
17150°98433SAND
35330°98433SAND

Airport contact information

Address: South Africa

Satellite view of FACONT